• Join FlightAware (Why Join?)
  • Login
  • US Flag 
05:20PM EDT


 

Airport Tracker/Info


-or-


 

Live Flight TrackerFlight Track Log ✈ SWA2855 ✈ 22-Feb-2014 ✈ KPVD - KMCO

Flight Track Log - Related Links

Times and Time Zones

All times are in EST time to prevent confusion due to time zone crossing. See the SWA2855 flight status page for this flight to view local times or setup timezone preferences in your user account.

Time Position Orientation Groundspeed Altitude Reporting Facility
EST Latitude Longitude Course Direction KTS MPH feet Rate Location/Type
01:34PM 41.7106 -71.4386 165° South 145 167 700  Level Boston Center
01:35PM 41.6586 -71.4200 165° South 194 223 3,500 2,580 Climbing Boston Center
01:35PM 41.6547 -71.4156 140° Southeast 218 251 3,600 480 Climbing Boston Center
01:36PM 41.6031 -71.3722 148° Southeast 245 282 4,000 1,620 Climbing Boston Center
01:37PM 41.5333 -71.3614 173° South 252 290 6,900 3,180 Climbing Boston Center
01:38PM 41.4547 -71.3414 169° South 270 311 10,600 3,000 Climbing Boston Center
01:39PM 41.3722 -71.3128 165° South 311 358 13,000 3,240 Climbing Boston Center
01:40PM 41.2842 -71.2833 166° South 325 374 17,200 3,300 Climbing Boston Center
01:41PM 41.2203 -71.3072 196° South 265 305 19,800 2,340 Climbing Boston Center
01:42PM 41.1772 -71.3853 234° Southwest 262 302 22,100 2,400 Climbing Boston Center
01:43PM 41.1283 -71.4639 230° Southwest 273 314 24,800 2,820 Climbing Boston Center
01:45PM 41.0708 -71.5453 227° Southwest 274 315 27,900 2,400 Climbing Boston Center
01:46PM 41.0225 -71.6172 228° Southwest 266 306 29,800 1,860 Climbing Boston Center
01:47PM 40.9661 -71.6992 228° Southwest 271 312 31,700 1,560 Climbing Boston Center
01:48PM 40.9144 -71.7767 229° Southwest 278 320 33,000 1,200 Climbing Boston Center
01:49PM 40.8608 -71.8536 227° Southwest 284 327 34,200 1,020 Climbing Boston Center
01:50PM 40.8058 -71.9347 228° Southwest 294 338 35,200 840 Climbing Boston Center
01:51PM 40.7472 -72.0178 227° Southwest 304 350 36,000 360 Climbing Boston Center
01:52PM 40.6828 -72.1117 228° Southwest 322 371 36,000  Level Boston Center
01:53PM 40.6233 -72.1978 228° Southwest 320 368 36,000  Level Boston Center
01:54PM 40.5633 -72.2853 228° Southwest 321 369 36,000  Level Boston Center
01:55PM 40.5036 -72.3714 228° Southwest 319 367 36,000  Level Boston Center
01:56PM 40.4428 -72.4564 227° Southwest 319 367 36,000  Level Boston Center
01:57PM 40.3822 -72.5439 228° Southwest 324 373 36,000  Level Boston Center
01:58PM 40.3200 -72.6311 227° Southwest 326 375 36,000  Level Boston Center
01:59PM 40.2472 -72.7364 228° Southwest 325 374 36,000  Level Boston Center
02:00PM 40.1900 -72.8161 227° Southwest 328 377 36,000  Level Boston Center
02:01PM 40.1272 -72.9050 227° Southwest 331 381 36,000  Level Boston Center
02:02PM 40.0642 -72.9928 227° Southwest 331 381 36,000 300 Level Boston Center
02:03PM 40.0022 -73.0817 228° Southwest 332 382 36,700 960 Climbing Boston Center
02:04PM 39.9297 -73.1814 227° Southwest 317 365 38,000 600 Climbing Boston Center
02:05PM 39.8675 -73.2678 227° Southwest 324 373 38,000  Level Boston Center
02:06PM 39.8111 -73.3458 227° Southwest 333 383 38,000  Level Boston Center
02:07PM 39.7178 -73.4767 227° Southwest 328 377 38,000  Level Washington Center
02:08PM 39.6525 -73.5647 226° Southwest 328 377 38,000  Level Washington Center
02:09PM 39.5894 -73.6528 227° Southwest 334 384 38,000  Level Washington Center
02:10PM 39.5261 -73.7406 227° Southwest 334 384 38,000  Level Washington Center
02:11PM 39.4608 -73.8283 226° Southwest 334 384 38,000  Level Washington Center
02:12PM 39.3975 -73.9158 227° Southwest 329 379 38,000  Level Washington Center
02:13PM 39.3342 -74.0003 226° Southwest 329 379 38,000  Level Washington Center
02:14PM 39.2686 -74.0875 226° Southwest 329 379 38,000  Level Washington Center
02:15PM 39.2050 -74.1747 227° Southwest 329 379 38,000  Level Washington Center
02:16PM 39.1414 -74.2617 227° Southwest 329 379 38,000  Level Washington Center
02:17PM 39.0778 -74.3483 227° Southwest 329 379 38,000  Level Washington Center
02:18PM 39.0139 -74.4322 226° Southwest 329 379 38,000  Level Washington Center
02:19PM 38.9481 -74.5186 226° Southwest 329 379 38,000  Level Washington Center
02:20PM 38.8778 -74.5997 222° Southwest 334 384 38,000  Level Washington Center
02:21PM 38.8033 -74.6781 219° Southwest 346 398 38,000  Level Washington Center
02:22PM 38.7289 -74.7561 219° Southwest 351 404 38,000  Level Washington Center
02:23PM 38.6544 -74.8367 220° Southwest 351 404 38,000  Level Washington Center
02:24PM 38.5819 -74.9144 220° Southwest 351 404 38,000  Level Washington Center
02:25PM 38.5072 -74.9947 220° Southwest 351 404 38,000  Level Washington Center
02:26PM 38.4325 -75.0694 218° Southwest 351 404 38,000  Level Washington Center
02:27PM 38.3578 -75.1522 221° Southwest 351 404 38,000  Level Washington Center
02:28PM 38.2831 -75.2294 219° Southwest 351 404 38,000  Level Washington Center
02:29PM 38.2103 -75.3117 222° Southwest 356 410 38,000  Level Washington Center
02:30PM 38.1333 -75.3911 219° Southwest 356 410 38,000  Level Washington Center
02:31PM 38.0583 -75.4678 219° Southwest 356 410 38,000  Level Washington Center
02:32PM 37.9728 -75.5311 210° Southwest 356 410 38,000  Level Washington Center
02:33PM 37.8853 -75.5969 211° Southwest 356 410 38,000  Level Washington Center
02:34PM 37.7997 -75.6628 211° Southwest 367 422 38,000  Level Washington Center
02:35PM 37.7100 -75.7308 211° Southwest 367 422 38,000  Level Washington Center
02:36PM 37.6244 -75.7964 211° Southwest 367 422 38,000  Level Washington Center
02:37PM 37.5408 -75.8669 214° Southwest 367 422 38,000  Level Washington Center
02:38PM 37.4553 -75.9344 212° Southwest 367 422 38,000  Level Washington Center
02:39PM 37.3694 -76.0047 213° Southwest 367 422 38,000  Level Washington Center
02:40PM 37.2836 -76.0747 213° Southwest 367 422 38,000  Level Washington Center
02:41PM 37.1958 -76.1447 212° Southwest 367 422 38,000  Level Washington Center
02:42PM 37.1142 -76.2014 209° Southwest 367 422 38,000  Level Washington Center
02:43PM 37.0283 -76.2708 213° Southwest 367 422 38,000  Level Washington Center
02:44PM 36.9422 -76.3378 212° Southwest 367 422 38,000  Level Washington Center
02:45PM 36.8564 -76.4069 213° Southwest 367 422 38,000  Level Washington Center
02:46PM 36.7703 -76.4761 213° Southwest 367 422 38,000  Level Washington Center
02:47PM 36.6758 -76.5553 214° Southwest 367 422 38,000  Level Washington Center
02:48PM 36.5897 -76.6214 212° Southwest 367 422 38,000  Level Washington Center
02:49PM 36.5078 -76.6850 212° Southwest 373 429 38,000  Level Washington Center
02:50PM 36.4217 -76.7508 212° Southwest 373 429 38,000  Level Washington Center
02:51PM 36.3333 -76.8192 212° Southwest 373 429 38,000  Level Washington Center
02:52PM 36.2450 -76.8875 212° Southwest 373 429 38,000  Level Washington Center
02:53PM 36.1586 -76.9556 212° Southwest 368 423 38,000  Level Washington Center
02:54PM 36.0661 -77.0233 211° Southwest 368 423 38,000  Level Washington Center
02:55PM 35.9819 -77.0936 214° Southwest 374 430 38,000  Level Washington Center
02:56PM 35.8850 -77.1686 212° Southwest 374 430 38,000  Level Washington Center
02:57PM 35.7964 -77.2336 211° Southwest 374 430 38,000  Level Washington Center
02:58PM 35.7036 -77.3058 212° Southwest 380 437 38,000  Level Washington Center
02:59PM 35.6339 -77.3606 213° Southwest 386 444 38,000  Level Washington Center
03:00PM 35.5389 -77.4375 213° Southwest 386 444 38,000  Level Washington Center
03:01PM 35.4583 -77.5197 220° Southwest 386 444 38,000  Level Washington Center
03:02PM 35.3797 -77.5994 220° Southwest 380 437 38,000  Level Washington Center
03:03PM 35.3011 -77.6814 220° Southwest 380 437 38,000  Level Washington Center
03:04PM 35.2206 -77.7608 219° Southwest 380 437 38,000  Level Washington Center
03:05PM 35.1397 -77.8425 220° Southwest 380 437 38,000  Level Washington Center
03:06PM 35.0589 -77.9239 220° Southwest 385 443 38,000  Level Washington Center
03:07PM 34.9800 -78.0053 220° Southwest 385 443 38,000 480 Level Washington Center
03:08PM 34.9053 -78.0814 220° Southwest 380 437 39,000 720 Climbing Washington Center
03:09PM 34.8286 -78.1603 220° Southwest 374 430 39,500 480 Climbing Washington Center
03:10PM 34.7411 -78.2508 220° Southwest 373 429 40,000 180 Climbing Washington Center
03:12PM 34.6269 -78.3611 218° Southwest 374 430 40,000  Level Jacksonville Center
03:13PM 34.5342 -78.4492 218° Southwest 379 436 40,000  Level Jacksonville Center
03:14PM 34.4617 -78.5261 221° Southwest 385 443 40,000  Level Jacksonville Center
03:15PM 34.3811 -78.6081 220° Southwest 390 449 40,000  Level Jacksonville Center
03:16PM 34.2983 -78.6900 219° Southwest 390 449 40,000  Level Jacksonville Center
03:17PM 34.2067 -78.7572 211° Southwest 390 449 40,000  Level Jacksonville Center
03:18PM 34.1150 -78.8192 209° Southwest 390 449 40,000  Level Jacksonville Center
03:19PM 34.0211 -78.8839 210° Southwest 390 449 40,000  Level Jacksonville Center
03:20PM 33.9169 -78.9561 210° Southwest 390 449 40,000  Level Jacksonville Center
03:21PM 33.8250 -79.0203 210° Southwest 390 449 40,000  Level Jacksonville Center
03:22PM 33.7311 -79.0869 211° Southwest 390 449 40,000  Level Jacksonville Center
03:23PM 33.6450 -79.1428 208° Southwest 377 434 40,000  Level Jacksonville Center
03:24PM 33.5511 -79.2092 211° Southwest 382 440 40,000  Level Jacksonville Center
03:25PM 33.4589 -79.2728 210° Southwest 387 445 40,000  Level Jacksonville Center
03:26PM 33.3689 -79.3361 210° Southwest 387 445 40,000  Level Jacksonville Center
03:27PM 33.2789 -79.3969 209° Southwest 387 445 40,000  Level Jacksonville Center
03:28PM 33.1867 -79.4625 211° Southwest 387 445 40,000  Level Jacksonville Center
03:29PM 33.0944 -79.5231 209° Southwest 382 440 40,000  Level Jacksonville Center
03:30PM 33.0144 -79.5756 209° Southwest 382 440 40,000  Level Jacksonville Center
03:31PM 32.9242 -79.6408 211° Southwest 382 440 40,000  Level Jacksonville Center
03:32PM 32.8339 -79.7008 209° Southwest 377 434 40,000  Level Jacksonville Center
03:33PM 32.7436 -79.7608 209° Southwest 377 434 40,000  Level Jacksonville Center
03:34PM 32.6553 -79.8231 211° Southwest 371 427 40,000  Level Jacksonville Center
03:35PM 32.5631 -79.8856 210° Southwest 371 427 40,000  Level Jacksonville Center
03:36PM 32.4747 -79.9450 210° Southwest 371 427 40,000  Level Jacksonville Center
03:37PM 32.3822 -80.0069 209° Southwest 371 427 40,000  Level Jacksonville Center
03:38PM 32.2875 -80.0689 209° Southwest 376 433 40,000  Level Jacksonville Center
03:39PM 32.1950 -80.1333 211° Southwest 376 433 40,000  Level Jacksonville Center
03:40PM 32.1003 -80.1950 209° Southwest 376 433 40,000  Level Jacksonville Center
03:41PM 32.0075 -80.2564 209° Southwest 381 438 40,000  Level Jacksonville Center
03:42PM 31.9150 -80.3203 210° Southwest 386 444 40,000  Level Jacksonville Center
03:43PM 31.8222 -80.3817 209° Southwest 386 444 40,000  Level Jacksonville Center
03:44PM 31.7144 -80.4186 196° South 392 451 40,000  Level Jacksonville Center
03:45PM 31.6022 -80.4508 194° South 404 465 40,000  Level Jacksonville Center
03:46PM 31.4819 -80.4881 195° South 415 478 40,000 -240 Level Jacksonville Center
03:47PM 31.3697 -80.5203 194° South 407 468 39,600 -720 Descending Jacksonville Center
03:48PM 31.2658 -80.5519 195° South 407 468 38,600 -1,020 Descending Jacksonville Center
03:49PM 31.1539 -80.5839 194° South 407 468 37,600 -960 Descending Jacksonville Center
03:50PM 31.0417 -80.6183 195° South 418 481 36,700 -840 Descending Jacksonville Center
03:51PM 30.9275 -80.6475 192° South 418 481 36,000 -660 Descending Jacksonville Center
03:52PM 30.8153 -80.6842 196° South 418 481 35,400 -780 Descending Jacksonville Center
03:53PM 30.6989 -80.7158 193° South 423 487 34,500 -720 Descending Jacksonville Center
03:54PM 30.5847 -80.7475 193° South 423 487 34,000 -300 Descending Jacksonville Center
03:55PM 30.4683 -80.7839 195° South 429 494 34,000  Level Jacksonville Center
03:56PM 30.3539 -80.8150 193° South 429 494 34,000  Level Jacksonville Center
03:57PM 30.2356 -80.8489 194° South 429 494 34,000  Level Jacksonville Center
03:58PM 30.1192 -80.8828 194° South 434 499 34,000  Level Jacksonville Center
03:59PM 30.0028 -80.9164 194° South 429 494 34,000 -900 Level Jacksonville Center
04:00PM 29.8864 -80.9472 193° South 429 494 32,300 -2,580 Descending Jacksonville Center
04:01PM 29.7678 -80.9833 195° South 429 494 28,900 -3,000 Descending Jacksonville Center
04:02PM 29.6536 -81.0167 194° South 429 494 26,300 -2,700 Descending Jacksonville Center
04:03PM 29.5369 -81.0331 187° South 434 499 23,600 -2,400 Descending Jacksonville Center
04:04PM 29.4389 -81.0397 183° South 418 481 21,500 -2,220 Descending Jacksonville Center
04:05PM 29.3325 -81.0536 186° South 402 463 19,200 -2,280 Descending Jacksonville Center
04:06PM 29.2286 -81.0700 188° South 392 451 17,000 -2,340 Descending Jacksonville Center
04:07PM 29.1283 -81.0764 183° South 378 435 14,600 -2,400 Descending Jacksonville Center
04:08PM 29.0306 -81.0903 187° South 368 423 12,200 -1,500 Descending Jacksonville Center
04:09PM 28.9303 -81.0800 175° South 356 410 11,600 -900 Descending Jacksonville Center
04:10PM 28.8333 -81.1000 190° South 317 365 10,500 -900 Descending Orlando TRACON
04:11PM 28.7500 -81.1167 190° South 288 331 9,800 -780 Descending Orlando TRACON
04:12PM 28.6667 -81.1500 199° South 278 320 9,000 -420 Descending Orlando TRACON
04:13PM 28.6000 -81.1667 192° South 268 308 9,000  Level Orlando TRACON
04:14PM 28.5167 -81.1833 190° South 268 308 9,000 -900 Level Orlando TRACON
04:15PM 28.4500 -81.1833 180° South 271 312 7,100 -1,860 Descending Orlando TRACON
04:16PM 28.3833 -81.2000 192° South 264 304 5,300 -1,440 Descending Orlando TRACON
04:17PM 28.3167 -81.2167 192° South 219 252 4,300 -1,260 Descending Orlando TRACON
04:18PM 28.2667 -81.2500 210° Southwest 211 243 2,800 -1,200 Descending Orlando TRACON
04:19PM 28.3000 -81.2833 319° Northwest 204 235 2,000 -720 Descending Orlando TRACON
04:20PM 28.3500 -81.2833 360° North 171 197 1,400 -660 Descending Orlando TRACON
04:21PM 28.3833 -81.2833 360° North 132 152 700 -720 Descending Orlando TRACON
04:23PM 28.4167 -81.3000 336° Northwest  Level FlightAware Approximate
04:30PM 28.4294 -81.3090 336° Northwest  Level Estimated
04:31PM 28.4294 -81.3090 336° Northwest  Level Estimated
04:32PM 28.4294 -81.3090 336° Northwest  Level Estimated
04:33PM 28.4294 -81.3090 336° Northwest  Level Estimated